sensor_id;sensor_type;location;lat;lon;timestamp;P1;durP1;ratioP1;P2;durP2;ratioP2
74196;SDS011;62555;52.678;4.900;2023-06-01T00:02:09;4.00;;;3.10;;
74196;SDS011;62555;52.678;4.900;2023-06-01T00:04:34;3.22;;;2.75;;
74196;SDS011;62555;52.678;4.900;2023-06-01T00:06:59;4.33;;;3.37;;
74196;SDS011;62555;52.678;4.900;2023-06-01T00:09:26;3.72;;;2.88;;
74196;SDS011;62555;52.678;4.900;2023-06-01T00:11:51;4.30;;;2.88;;
74196;SDS011;62555;52.678;4.900;2023-06-01T00:14:17;3.87;;;3.10;;
74196;SDS011;62555;52.678;4.900;2023-06-01T00:16:42;4.07;;;3.40;;
74196;SDS011;62555;52.678;4.900;2023-06-01T00:19:07;4.45;;;2.90;;
74196;SDS011;62555;52.678;4.900;2023-06-01T00:21:32;3.47;;;2.78;;
74196;SDS011;62555;52.678;4.900;2023-06-01T00:26:25;4.13;;;2.73;;
74196;SDS011;62555;52.678;4.900;2023-06-01T00:28:51;3.88;;;2.95;;
74196;SDS011;62555;52.678;4.900;2023-06-01T00:31:16;4.80;;;3.60;;
74196;SDS011;62555;52.678;4.900;2023-06-01T00:33:41;3.60;;;3.00;;
74196;SDS011;62555;52.678;4.900;2023-06-01T00:36:06;4.43;;;3.80;;
74196;SDS011;62555;52.678;4.900;2023-06-01T00:38:31;4.53;;;3.00;;
74196;SDS011;62555;52.678;4.900;2023-06-01T00:40:57;3.87;;;2.67;;
74196;SDS011;62555;52.678;4.900;2023-06-01T00:43:22;5.73;;;3.27;;
74196;SDS011;62555;52.678;4.900;2023-06-01T00:45:47;3.72;;;3.30;;
74196;SDS011;62555;52.678;4.900;2023-06-01T00:48:12;4.68;;;2.80;;
74196;SDS011;62555;52.678;4.900;2023-06-01T00:50:39;5.15;;;3.22;;
74196;SDS011;62555;52.678;4.900;2023-06-01T00:53:05;3.38;;;2.90;;
74196;SDS011;62555;52.678;4.900;2023-06-01T00:57:57;3.95;;;2.90;;
74196;SDS011;62555;52.678;4.900;2023-06-01T01:00:22;5.05;;;2.85;;
74196;SDS011;62555;52.678;4.900;2023-06-01T01:02:48;4.82;;;3.67;;
74196;SDS011;62555;52.678;4.900;2023-06-01T01:05:14;3.70;;;2.88;;
74196;SDS011;62555;52.678;4.900;2023-06-01T01:10:22;5.25;;;3.10;;
74196;SDS011;62555;52.678;4.900;2023-06-01T01:12:52;5.57;;;3.47;;
74196;SDS011;62555;52.678;4.900;2023-06-01T01:15:23;3.55;;;3.25;;
74196;SDS011;62555;52.678;4.900;2023-06-01T01:17:50;3.50;;;3.08;;
74196;SDS011;62555;52.678;4.900;2023-06-01T01:20:22;3.72;;;3.25;;
74196;SDS011;62555;52.678;4.900;2023-06-01T01:23:10;4.57;;;3.20;;
74196;SDS011;62555;52.678;4.900;2023-06-01T01:30:51;3.67;;;2.67;;
74196;SDS011;62555;52.678;4.900;2023-06-01T01:33:18;4.15;;;2.95;;
74196;SDS011;62555;52.678;4.900;2023-06-01T01:35:44;4.65;;;3.80;;
74196;SDS011;62555;52.678;4.900;2023-06-01T01:38:10;3.58;;;3.10;;
74196;SDS011;62555;52.678;4.900;2023-06-01T01:40:35;3.83;;;3.27;;
74196;SDS011;62555;52.678;4.900;2023-06-01T01:43:00;4.30;;;3.17;;
74196;SDS011;62555;52.678;4.900;2023-06-01T01:45:26;3.78;;;2.95;;
74196;SDS011;62555;52.678;4.900;2023-06-01T01:47:58;4.10;;;3.42;;
74196;SDS011;62555;52.678;4.900;2023-06-01T01:50:29;4.03;;;2.70;;
74196;SDS011;62555;52.678;4.900;2023-06-01T01:52:57;4.97;;;3.40;;
74196;SDS011;62555;52.678;4.900;2023-06-01T01:55:24;3.42;;;2.88;;
74196;SDS011;62555;52.678;4.900;2023-06-01T01:57:51;4.68;;;3.17;;
74196;SDS011;62555;52.678;4.900;2023-06-01T02:00:17;3.78;;;2.80;;
74196;SDS011;62555;52.678;4.900;2023-06-01T02:02:44;4.60;;;3.28;;
74196;SDS011;62555;52.678;4.900;2023-06-01T02:05:09;4.45;;;3.33;;
74196;SDS011;62555;52.678;4.900;2023-06-01T02:07:35;4.35;;;2.80;;
74196;SDS011;62555;52.678;4.900;2023-06-01T02:10:00;4.03;;;3.00;;
74196;SDS011;62555;52.678;4.900;2023-06-01T02:12:25;4.37;;;3.03;;
74196;SDS011;62555;52.678;4.900;2023-06-01T02:14:50;5.13;;;3.23;;
74196;SDS011;62555;52.678;4.900;2023-06-01T02:17:16;6.30;;;3.50;;
74196;SDS011;62555;52.678;4.900;2023-06-01T02:19:42;4.78;;;3.60;;
74196;SDS011;62555;52.678;4.900;2023-06-01T02:22:07;4.80;;;3.70;;
74196;SDS011;62555;52.678;4.900;2023-06-01T02:24:32;4.83;;;3.27;;
74196;SDS011;62555;52.678;4.900;2023-06-01T02:26:57;4.23;;;3.60;;
74196;SDS011;62555;52.678;4.900;2023-06-01T02:29:22;5.17;;;3.47;;
74196;SDS011;62555;52.678;4.900;2023-06-01T02:31:48;5.67;;;3.53;;
74196;SDS011;62555;52.678;4.900;2023-06-01T02:34:14;4.75;;;3.35;;
74196;SDS011;62555;52.678;4.900;2023-06-01T02:36:40;5.20;;;3.60;;
74196;SDS011;62555;52.678;4.900;2023-06-01T02:39:05;4.90;;;3.67;;
74196;SDS011;62555;52.678;4.900;2023-06-01T02:41:31;5.90;;;3.58;;
74196;SDS011;62555;52.678;4.900;2023-06-01T02:43:56;5.40;;;3.97;;
74196;SDS011;62555;52.678;4.900;2023-06-01T02:46:21;4.67;;;3.77;;
74196;SDS011;62555;52.678;4.900;2023-06-01T02:48:46;5.80;;;3.47;;
74196;SDS011;62555;52.678;4.900;2023-06-01T02:51:12;4.18;;;3.15;;
74196;SDS011;62555;52.678;4.900;2023-06-01T02:53:41;4.57;;;3.13;;
74196;SDS011;62555;52.678;4.900;2023-06-01T02:56:06;4.90;;;3.88;;
74196;SDS011;62555;52.678;4.900;2023-06-01T02:58:31;4.67;;;3.40;;
74196;SDS011;62555;52.678;4.900;2023-06-01T03:00:56;3.53;;;3.17;;
74196;SDS011;62555;52.678;4.900;2023-06-01T03:03:23;5.75;;;3.70;;
74196;SDS011;62555;52.678;4.900;2023-06-01T03:05:48;6.13;;;4.72;;
74196;SDS011;62555;52.678;4.900;2023-06-01T03:08:13;4.33;;;3.67;;
74196;SDS011;62555;52.678;4.900;2023-06-01T03:10:38;4.80;;;4.03;;
74196;SDS011;62555;52.678;4.900;2023-06-01T03:13:03;8.43;;;3.33;;
74196;SDS011;62555;52.678;4.900;2023-06-01T03:15:29;5.30;;;4.00;;
74196;SDS011;62555;52.678;4.900;2023-06-01T03:17:54;4.57;;;3.57;;
74196;SDS011;62555;52.678;4.900;2023-06-01T03:20:19;5.90;;;3.63;;
74196;SDS011;62555;52.678;4.900;2023-06-01T03:22:45;5.80;;;3.60;;
74196;SDS011;62555;52.678;4.900;2023-06-01T03:25:10;4.70;;;3.75;;
74196;SDS011;62555;52.678;4.900;2023-06-01T03:27:37;5.25;;;3.42;;
74196;SDS011;62555;52.678;4.900;2023-06-01T03:30:03;4.55;;;3.83;;
74196;SDS011;62555;52.678;4.900;2023-06-01T03:32:28;6.15;;;3.78;;
74196;SDS011;62555;52.678;4.900;2023-06-01T03:34:54;3.60;;;3.20;;
74196;SDS011;62555;52.678;4.900;2023-06-01T03:37:20;4.15;;;3.15;;
74196;SDS011;62555;52.678;4.900;2023-06-01T03:39:45;5.10;;;3.65;;
74196;SDS011;62555;52.678;4.900;2023-06-01T03:42:10;5.03;;;3.93;;
74196;SDS011;62555;52.678;4.900;2023-06-01T03:44:36;4.27;;;3.23;;
74196;SDS011;62555;52.678;4.900;2023-06-01T03:47:01;3.83;;;3.28;;
74196;SDS011;62555;52.678;4.900;2023-06-01T03:49:26;5.10;;;3.07;;
74196;SDS011;62555;52.678;4.900;2023-06-01T03:51:51;4.90;;;3.43;;
74196;SDS011;62555;52.678;4.900;2023-06-01T03:54:17;4.63;;;3.60;;
74196;SDS011;62555;52.678;4.900;2023-06-01T03:56:42;5.72;;;3.33;;
74196;SDS011;62555;52.678;4.900;2023-06-01T03:59:07;5.33;;;3.77;;
74196;SDS011;62555;52.678;4.900;2023-06-01T04:04:04;4.05;;;3.40;;
74196;SDS011;62555;52.678;4.900;2023-06-01T04:06:30;5.40;;;3.50;;
74196;SDS011;62555;52.678;4.900;2023-06-01T04:09:00;3.83;;;3.20;;
74196;SDS011;62555;52.678;4.900;2023-06-01T04:11:31;5.63;;;3.78;;
74196;SDS011;62555;52.678;4.900;2023-06-01T04:13:56;3.87;;;3.03;;
74196;SDS011;62555;52.678;4.900;2023-06-01T04:16:21;3.43;;;2.90;;
74196;SDS011;62555;52.678;4.900;2023-06-01T04:18:46;4.47;;;3.30;;
74196;SDS011;62555;52.678;4.900;2023-06-01T04:21:12;3.10;;;2.80;;
74196;SDS011;62555;52.678;4.900;2023-06-01T04:23:37;3.73;;;3.30;;
74196;SDS011;62555;52.678;4.900;2023-06-01T04:26:02;3.57;;;3.03;;
74196;SDS011;62555;52.678;4.900;2023-06-01T04:30:58;4.15;;;3.05;;
74196;SDS011;62555;52.678;4.900;2023-06-01T04:33:23;5.13;;;3.63;;
74196;SDS011;62555;52.678;4.900;2023-06-01T04:35:49;4.47;;;2.80;;
74196;SDS011;62555;52.678;4.900;2023-06-01T04:38:17;3.70;;;3.20;;
74196;SDS011;62555;52.678;4.900;2023-06-01T04:40:43;6.63;;;3.60;;
74196;SDS011;62555;52.678;4.900;2023-06-01T04:43:10;3.72;;;3.30;;
74196;SDS011;62555;52.678;4.900;2023-06-01T04:45:36;4.78;;;2.83;;
74196;SDS011;62555;52.678;4.900;2023-06-01T04:48:03;5.00;;;2.78;;
74196;SDS011;62555;52.678;4.900;2023-06-01T04:50:30;4.32;;;3.38;;
74196;SDS011;62555;52.678;4.900;2023-06-01T04:52:55;3.57;;;2.73;;
74196;SDS011;62555;52.678;4.900;2023-06-01T04:55:20;5.87;;;3.50;;
74196;SDS011;62555;52.678;4.900;2023-06-01T04:57:45;5.00;;;2.60;;
74196;SDS011;62555;52.678;4.900;2023-06-01T05:00:12;4.80;;;3.20;;
74196;SDS011;62555;52.678;4.900;2023-06-01T05:02:41;4.65;;;3.83;;
74196;SDS011;62555;52.678;4.900;2023-06-01T05:05:08;4.93;;;3.50;;
74196;SDS011;62555;52.678;4.900;2023-06-01T05:07:34;3.67;;;3.27;;
74196;SDS011;62555;52.678;4.900;2023-06-01T05:09:59;3.95;;;3.22;;
74196;SDS011;62555;52.678;4.900;2023-06-01T05:12:29;4.35;;;3.08;;
74196;SDS011;62555;52.678;4.900;2023-06-01T05:14:54;4.07;;;2.55;;
74196;SDS011;62555;52.678;4.900;2023-06-01T05:17:20;5.37;;;3.00;;
74196;SDS011;62555;52.678;4.900;2023-06-01T05:19:45;3.97;;;3.07;;
74196;SDS011;62555;52.678;4.900;2023-06-01T05:22:10;5.50;;;2.80;;
74196;SDS011;62555;52.678;4.900;2023-06-01T05:24:36;4.57;;;3.08;;
74196;SDS011;62555;52.678;4.900;2023-06-01T05:27:02;5.07;;;3.10;;
74196;SDS011;62555;52.678;4.900;2023-06-01T05:29:27;4.00;;;2.63;;
74196;SDS011;62555;52.678;4.900;2023-06-01T05:31:52;4.80;;;3.23;;
74196;SDS011;62555;52.678;4.900;2023-06-01T05:34:17;3.77;;;2.70;;
74196;SDS011;62555;52.678;4.900;2023-06-01T05:36:42;3.67;;;2.60;;
74196;SDS011;62555;52.678;4.900;2023-06-01T05:39:08;4.63;;;2.87;;
74196;SDS011;62555;52.678;4.900;2023-06-01T05:41:33;4.00;;;3.10;;
74196;SDS011;62555;52.678;4.900;2023-06-01T05:43:58;5.47;;;3.57;;
74196;SDS011;62555;52.678;4.900;2023-06-01T05:46:23;5.23;;;3.60;;
74196;SDS011;62555;52.678;4.900;2023-06-01T05:48:49;3.75;;;2.53;;
74196;SDS011;62555;52.678;4.900;2023-06-01T05:51:15;4.95;;;3.05;;
74196;SDS011;62555;52.678;4.900;2023-06-01T05:53:40;5.67;;;3.07;;
74196;SDS011;62555;52.678;4.900;2023-06-01T05:56:06;4.22;;;2.90;;
74196;SDS011;62555;52.678;4.900;2023-06-01T05:58:31;4.43;;;2.40;;
74196;SDS011;62555;52.678;4.900;2023-06-01T06:00:56;4.23;;;3.00;;
74196;SDS011;62555;52.678;4.900;2023-06-01T06:03:22;4.47;;;2.42;;
74196;SDS011;62555;52.678;4.900;2023-06-01T06:05:47;4.70;;;2.58;;
74196;SDS011;62555;52.678;4.900;2023-06-01T06:08:13;4.70;;;2.85;;
74196;SDS011;62555;52.678;4.900;2023-06-01T06:10:38;4.33;;;3.23;;
74196;SDS011;62555;52.678;4.900;2023-06-01T06:13:03;3.67;;;2.73;;
74196;SDS011;62555;52.678;4.900;2023-06-01T06:15:28;3.37;;;2.67;;
74196;SDS011;62555;52.678;4.900;2023-06-01T06:17:54;5.05;;;2.78;;
74196;SDS011;62555;52.678;4.900;2023-06-01T06:20:20;5.68;;;2.60;;
74196;SDS011;62555;52.678;4.900;2023-06-01T06:22:49;4.15;;;2.60;;
74196;SDS011;62555;52.678;4.900;2023-06-01T06:25:14;4.70;;;3.05;;
74196;SDS011;62555;52.678;4.900;2023-06-01T06:27:39;4.70;;;2.63;;
74196;SDS011;62555;52.678;4.900;2023-06-01T06:30:05;4.32;;;2.60;;
74196;SDS011;62555;52.678;4.900;2023-06-01T06:32:31;3.83;;;2.72;;
74196;SDS011;62555;52.678;4.900;2023-06-01T06:34:56;4.27;;;2.73;;
74196;SDS011;62555;52.678;4.900;2023-06-01T06:37:22;2.97;;;2.50;;
74196;SDS011;62555;52.678;4.900;2023-06-01T06:39:47;4.23;;;2.43;;
74196;SDS011;62555;52.678;4.900;2023-06-01T06:42:12;4.03;;;2.80;;
74196;SDS011;62555;52.678;4.900;2023-06-01T06:44:37;4.00;;;2.67;;
74196;SDS011;62555;52.678;4.900;2023-06-01T06:47:02;4.70;;;2.87;;
74196;SDS011;62555;52.678;4.900;2023-06-01T06:49:28;3.83;;;2.73;;
74196;SDS011;62555;52.678;4.900;2023-06-01T06:51:53;3.60;;;2.90;;
74196;SDS011;62555;52.678;4.900;2023-06-01T06:54:18;3.17;;;2.70;;
74196;SDS011;62555;52.678;4.900;2023-06-01T06:56:43;4.50;;;2.93;;
74196;SDS011;62555;52.678;4.900;2023-06-01T06:59:09;3.97;;;2.97;;
74196;SDS011;62555;52.678;4.900;2023-06-01T07:01:35;3.17;;;2.50;;
74196;SDS011;62555;52.678;4.900;2023-06-01T07:04:01;3.97;;;2.50;;
74196;SDS011;62555;52.678;4.900;2023-06-01T07:06:26;3.60;;;2.72;;
74196;SDS011;62555;52.678;4.900;2023-06-01T07:08:51;3.63;;;2.42;;
74196;SDS011;62555;52.678;4.900;2023-06-01T07:11:16;5.50;;;2.67;;
74196;SDS011;62555;52.678;4.900;2023-06-01T07:13:42;5.33;;;2.80;;
74196;SDS011;62555;52.678;4.900;2023-06-01T07:16:07;4.30;;;2.47;;
74196;SDS011;62555;52.678;4.900;2023-06-01T07:18:32;4.23;;;2.93;;
74196;SDS011;62555;52.678;4.900;2023-06-01T07:20:58;5.27;;;3.00;;
74196;SDS011;62555;52.678;4.900;2023-06-01T07:23:23;4.30;;;2.73;;
74196;SDS011;62555;52.678;4.900;2023-06-01T07:25:48;2.83;;;2.37;;
74196;SDS011;62555;52.678;4.900;2023-06-01T07:28:13;3.73;;;2.37;;
74196;SDS011;62555;52.678;4.900;2023-06-01T07:30:40;3.25;;;2.10;;
74196;SDS011;62555;52.678;4.900;2023-06-01T07:33:05;3.75;;;2.30;;
74196;SDS011;62555;52.678;4.900;2023-06-01T07:35:30;4.20;;;2.63;;
74196;SDS011;62555;52.678;4.900;2023-06-01T07:37:57;4.18;;;2.38;;
74196;SDS011;62555;52.678;4.900;2023-06-01T07:40:23;2.77;;;2.37;;
74196;SDS011;62555;52.678;4.900;2023-06-01T07:42:48;3.93;;;2.30;;
74196;SDS011;62555;52.678;4.900;2023-06-01T07:45:13;3.03;;;2.37;;
74196;SDS011;62555;52.678;4.900;2023-06-01T07:47:39;3.92;;;2.15;;
74196;SDS011;62555;52.678;4.900;2023-06-01T07:50:04;3.20;;;2.55;;
74196;SDS011;62555;52.678;4.900;2023-06-01T07:52:29;2.92;;;2.17;;
74196;SDS011;62555;52.678;4.900;2023-06-01T07:54:55;4.22;;;2.00;;
74196;SDS011;62555;52.678;4.900;2023-06-01T07:57:20;6.93;;;2.67;;
74196;SDS011;62555;52.678;4.900;2023-06-01T07:59:45;3.37;;;2.17;;
74196;SDS011;62555;52.678;4.900;2023-06-01T08:02:11;3.73;;;2.07;;
74196;SDS011;62555;52.678;4.900;2023-06-01T08:04:36;4.43;;;2.73;;
74196;SDS011;62555;52.678;4.900;2023-06-01T08:07:02;3.60;;;2.50;;
74196;SDS011;62555;52.678;4.900;2023-06-01T08:09:28;3.75;;;2.55;;
74196;SDS011;62555;52.678;4.900;2023-06-01T08:11:53;3.13;;;2.35;;
74196;SDS011;62555;52.678;4.900;2023-06-01T08:14:19;5.50;;;2.83;;
74196;SDS011;62555;52.678;4.900;2023-06-01T08:16:44;3.20;;;2.23;;
74196;SDS011;62555;52.678;4.900;2023-06-01T08:19:10;3.97;;;2.58;;
74196;SDS011;62555;52.678;4.900;2023-06-01T08:21:35;3.83;;;2.67;;
74196;SDS011;62555;52.678;4.900;2023-06-01T08:24:00;4.47;;;2.80;;
74196;SDS011;62555;52.678;4.900;2023-06-01T08:26:27;3.55;;;2.35;;
74196;SDS011;62555;52.678;4.900;2023-06-01T08:28:52;3.47;;;2.47;;
74196;SDS011;62555;52.678;4.900;2023-06-01T08:31:21;4.53;;;2.53;;
74196;SDS011;62555;52.678;4.900;2023-06-01T08:33:47;4.07;;;2.45;;
74196;SDS011;62555;52.678;4.900;2023-06-01T08:36:12;3.97;;;2.35;;
74196;SDS011;62555;52.678;4.900;2023-06-01T08:38:37;3.63;;;2.60;;
74196;SDS011;62555;52.678;4.900;2023-06-01T08:41:03;4.53;;;2.30;;
74196;SDS011;62555;52.678;4.900;2023-06-01T08:43:30;4.35;;;2.47;;
74196;SDS011;62555;52.678;4.900;2023-06-01T08:45:56;3.17;;;2.30;;
74196;SDS011;62555;52.678;4.900;2023-06-01T08:48:22;3.03;;;1.92;;
74196;SDS011;62555;52.678;4.900;2023-06-01T08:50:48;4.85;;;2.78;;
74196;SDS011;62555;52.678;4.900;2023-06-01T08:53:17;3.50;;;2.40;;
74196;SDS011;62555;52.678;4.900;2023-06-01T08:55:44;3.75;;;2.65;;
74196;SDS011;62555;52.678;4.900;2023-06-01T08:58:09;3.22;;;2.20;;
74196;SDS011;62555;52.678;4.900;2023-06-01T09:00:34;4.10;;;2.38;;
74196;SDS011;62555;52.678;4.900;2023-06-01T09:03:00;3.28;;;2.70;;
74196;SDS011;62555;52.678;4.900;2023-06-01T09:05:26;4.82;;;2.60;;
74196;SDS011;62555;52.678;4.900;2023-06-01T09:07:51;3.27;;;2.50;;
74196;SDS011;62555;52.678;4.900;2023-06-01T09:10:20;4.60;;;2.30;;
74196;SDS011;62555;52.678;4.900;2023-06-01T09:12:53;4.05;;;2.60;;
74196;SDS011;62555;52.678;4.900;2023-06-01T09:15:19;2.72;;;2.28;;
74196;SDS011;62555;52.678;4.900;2023-06-01T09:17:45;3.35;;;2.50;;
74196;SDS011;62555;52.678;4.900;2023-06-01T09:20:15;2.95;;;2.20;;
74196;SDS011;62555;52.678;4.900;2023-06-01T09:22:46;3.25;;;2.42;;
74196;SDS011;62555;52.678;4.900;2023-06-01T09:25:12;5.13;;;2.70;;
74196;SDS011;62555;52.678;4.900;2023-06-01T09:27:46;3.42;;;2.63;;
74196;SDS011;62555;52.678;4.900;2023-06-01T09:30:11;3.15;;;2.20;;
74196;SDS011;62555;52.678;4.900;2023-06-01T09:32:37;2.85;;;2.35;;
74196;SDS011;62555;52.678;4.900;2023-06-01T09:35:02;3.47;;;2.10;;
74196;SDS011;62555;52.678;4.900;2023-06-01T09:37:28;4.90;;;2.67;;
74196;SDS011;62555;52.678;4.900;2023-06-01T09:39:53;3.50;;;2.28;;
74196;SDS011;62555;52.678;4.900;2023-06-01T09:42:21;3.63;;;2.00;;
74196;SDS011;62555;52.678;4.900;2023-06-01T09:44:55;3.95;;;1.88;;
74196;SDS011;62555;52.678;4.900;2023-06-01T09:47:38;2.80;;;1.95;;
74196;SDS011;62555;52.678;4.900;2023-06-01T09:50:03;2.23;;;2.00;;
74196;SDS011;62555;52.678;4.900;2023-06-01T09:52:28;2.42;;;1.83;;
74196;SDS011;62555;52.678;4.900;2023-06-01T09:54:53;3.70;;;2.10;;
74196;SDS011;62555;52.678;4.900;2023-06-01T09:57:25;2.38;;;1.83;;
74196;SDS011;62555;52.678;4.900;2023-06-01T09:59:50;3.22;;;2.08;;
74196;SDS011;62555;52.678;4.900;2023-06-01T10:02:17;2.65;;;1.70;;
74196;SDS011;62555;52.678;4.900;2023-06-01T10:04:45;2.85;;;1.80;;
74196;SDS011;62555;52.678;4.900;2023-06-01T10:07:10;2.47;;;1.55;;
74196;SDS011;62555;52.678;4.900;2023-06-01T10:09:37;2.83;;;1.92;;
74196;SDS011;62555;52.678;4.900;2023-06-01T10:12:04;3.22;;;2.05;;
74196;SDS011;62555;52.678;4.900;2023-06-01T10:14:29;2.65;;;2.00;;
74196;SDS011;62555;52.678;4.900;2023-06-01T10:16:55;2.95;;;2.08;;
74196;SDS011;62555;52.678;4.900;2023-06-01T10:19:20;2.72;;;2.03;;
74196;SDS011;62555;52.678;4.900;2023-06-01T10:21:46;3.30;;;2.13;;
74196;SDS011;62555;52.678;4.900;2023-06-01T10:24:12;3.15;;;2.65;;
74196;SDS011;62555;52.678;4.900;2023-06-01T10:29:16;2.80;;;1.83;;
74196;SDS011;62555;52.678;4.900;2023-06-01T10:31:42;2.42;;;1.35;;
74196;SDS011;62555;52.678;4.900;2023-06-01T10:34:08;2.17;;;1.90;;
74196;SDS011;62555;52.678;4.900;2023-06-01T10:39:21;1.85;;;1.40;;
74196;SDS011;62555;52.678;4.900;2023-06-01T10:41:47;3.95;;;2.00;;
74196;SDS011;62555;52.678;4.900;2023-06-01T10:44:24;1.97;;;1.60;;
74196;SDS011;62555;52.678;4.900;2023-06-01T10:46:57;2.35;;;1.60;;
74196;SDS011;62555;52.678;4.900;2023-06-01T10:49:22;2.53;;;1.70;;
74196;SDS011;62555;52.678;4.900;2023-06-01T10:51:47;1.87;;;1.70;;
74196;SDS011;62555;52.678;4.900;2023-06-01T11:02:29;1.85;;;1.50;;
74196;SDS011;62555;52.678;4.900;2023-06-01T11:04:55;3.60;;;1.67;;
74196;SDS011;62555;52.678;4.900;2023-06-01T11:07:34;1.67;;;1.40;;
74196;SDS011;62555;52.678;4.900;2023-06-01T11:10:00;2.45;;;1.33;;
74196;SDS011;62555;52.678;4.900;2023-06-01T11:12:25;2.13;;;1.43;;
74196;SDS011;62555;52.678;4.900;2023-06-01T11:15:08;1.70;;;1.40;;
74196;SDS011;62555;52.678;4.900;2023-06-01T11:17:36;1.85;;;1.25;;
74196;SDS011;62555;52.678;4.900;2023-06-01T11:20:02;1.77;;;1.25;;
74196;SDS011;62555;52.678;4.900;2023-06-01T11:22:36;3.65;;;1.77;;
74196;SDS011;62555;52.678;4.900;2023-06-01T11:25:04;1.70;;;1.10;;
74196;SDS011;62555;52.678;4.900;2023-06-01T11:29:54;1.57;;;1.00;;
74196;SDS011;62555;52.678;4.900;2023-06-01T11:32:21;1.45;;;0.93;;
74196;SDS011;62555;52.678;4.900;2023-06-01T11:34:47;1.67;;;1.38;;
74196;SDS011;62555;52.678;4.900;2023-06-01T11:37:17;1.67;;;1.15;;
74196;SDS011;62555;52.678;4.900;2023-06-01T11:39:43;1.52;;;1.10;;
74196;SDS011;62555;52.678;4.900;2023-06-01T11:42:11;1.20;;;1.10;;
74196;SDS011;62555;52.678;4.900;2023-06-01T11:44:37;1.92;;;1.10;;
74196;SDS011;62555;52.678;4.900;2023-06-01T11:47:03;1.15;;;0.98;;
74196;SDS011;62555;52.678;4.900;2023-06-01T11:49:30;1.67;;;1.15;;
74196;SDS011;62555;52.678;4.900;2023-06-01T11:51:56;1.38;;;0.88;;
74196;SDS011;62555;52.678;4.900;2023-06-01T11:54:25;2.55;;;1.23;;
74196;SDS011;62555;52.678;4.900;2023-06-01T11:56:51;1.38;;;0.98;;
74196;SDS011;62555;52.678;4.900;2023-06-01T11:59:17;1.83;;;1.30;;
74196;SDS011;62555;52.678;4.900;2023-06-01T12:01:43;1.60;;;1.10;;
74196;SDS011;62555;52.678;4.900;2023-06-01T12:04:15;2.60;;;1.50;;
74196;SDS011;62555;52.678;4.900;2023-06-01T12:06:41;1.83;;;1.00;;
74196;SDS011;62555;52.678;4.900;2023-06-01T12:09:06;2.05;;;1.05;;
74196;SDS011;62555;52.678;4.900;2023-06-01T12:11:32;1.30;;;1.00;;
74196;SDS011;62555;52.678;4.900;2023-06-01T12:13:59;1.58;;;1.10;;
74196;SDS011;62555;52.678;4.900;2023-06-01T12:16:24;2.38;;;1.30;;
74196;SDS011;62555;52.678;4.900;2023-06-01T12:18:52;2.25;;;1.02;;
74196;SDS011;62555;52.678;4.900;2023-06-01T12:21:19;1.52;;;1.13;;
74196;SDS011;62555;52.678;4.900;2023-06-01T12:23:50;1.10;;;0.83;;
74196;SDS011;62555;52.678;4.900;2023-06-01T12:26:18;3.03;;;1.35;;
74196;SDS011;62555;52.678;4.900;2023-06-01T12:29:02;2.23;;;1.30;;
74196;SDS011;62555;52.678;4.900;2023-06-01T12:31:27;1.83;;;1.23;;
74196;SDS011;62555;52.678;4.900;2023-06-01T12:33:52;2.33;;;1.30;;
74196;SDS011;62555;52.678;4.900;2023-06-01T12:36:34;2.10;;;1.30;;
74196;SDS011;62555;52.678;4.900;2023-06-01T12:39:00;3.20;;;1.30;;
74196;SDS011;62555;52.678;4.900;2023-06-01T12:41:26;1.60;;;1.38;;
74196;SDS011;62555;52.678;4.900;2023-06-01T12:43:51;1.98;;;1.05;;
74196;SDS011;62555;52.678;4.900;2023-06-01T12:46:21;1.98;;;1.20;;
74196;SDS011;62555;52.678;4.900;2023-06-01T12:48:46;2.60;;;1.52;;
74196;SDS011;62555;52.678;4.900;2023-06-01T12:51:12;2.50;;;1.63;;
74196;SDS011;62555;52.678;4.900;2023-06-01T12:53:38;2.88;;;1.27;;
74196;SDS011;62555;52.678;4.900;2023-06-01T12:56:03;2.38;;;1.48;;
74196;SDS011;62555;52.678;4.900;2023-06-01T12:58:29;3.67;;;1.63;;
74196;SDS011;62555;52.678;4.900;2023-06-01T13:00:54;2.10;;;1.40;;
74196;SDS011;62555;52.678;4.900;2023-06-01T13:03:19;2.10;;;1.33;;
74196;SDS011;62555;52.678;4.900;2023-06-01T13:05:46;2.28;;;1.50;;
74196;SDS011;62555;52.678;4.900;2023-06-01T13:08:12;3.20;;;1.48;;
74196;SDS011;62555;52.678;4.900;2023-06-01T13:10:37;2.83;;;1.65;;
74196;SDS011;62555;52.678;4.900;2023-06-01T13:13:02;2.43;;;1.87;;
74196;SDS011;62555;52.678;4.900;2023-06-01T13:15:27;4.80;;;1.90;;
74196;SDS011;62555;52.678;4.900;2023-06-01T13:17:52;2.10;;;1.53;;
74196;SDS011;62555;52.678;4.900;2023-06-01T13:20:20;1.90;;;1.73;;
74196;SDS011;62555;52.678;4.900;2023-06-01T13:22:45;1.65;;;1.52;;
74196;SDS011;62555;52.678;4.900;2023-06-01T13:25:10;2.07;;;1.43;;
74196;SDS011;62555;52.678;4.900;2023-06-01T13:27:35;2.40;;;1.40;;
74196;SDS011;62555;52.678;4.900;2023-06-01T13:30:01;2.07;;;1.30;;
74196;SDS011;62555;52.678;4.900;2023-06-01T13:32:27;3.25;;;1.50;;
74196;SDS011;62555;52.678;4.900;2023-06-01T13:34:53;3.05;;;1.63;;
74196;SDS011;62555;52.678;4.900;2023-06-01T13:37:19;1.90;;;1.50;;
74196;SDS011;62555;52.678;4.900;2023-06-01T13:39:44;2.30;;;1.50;;
74196;SDS011;62555;52.678;4.900;2023-06-01T13:42:09;3.53;;;1.30;;
74196;SDS011;62555;52.678;4.900;2023-06-01T13:44:34;2.08;;;1.70;;
74196;SDS011;62555;52.678;4.900;2023-06-01T13:47:00;2.13;;;1.40;;
74196;SDS011;62555;52.678;4.900;2023-06-01T13:49:25;1.37;;;1.27;;
74196;SDS011;62555;52.678;4.900;2023-06-01T13:51:51;2.15;;;1.35;;
74196;SDS011;62555;52.678;4.900;2023-06-01T13:54:16;1.95;;;1.50;;
74196;SDS011;62555;52.678;4.900;2023-06-01T13:56:41;2.13;;;1.30;;
74196;SDS011;62555;52.678;4.900;2023-06-01T13:59:08;4.20;;;1.92;;
74196;SDS011;62555;52.678;4.900;2023-06-01T14:01:33;2.60;;;1.60;;
74196;SDS011;62555;52.678;4.900;2023-06-01T14:04:00;1.98;;;1.45;;
74196;SDS011;62555;52.678;4.900;2023-06-01T14:06:25;2.23;;;1.60;;
74196;SDS011;62555;52.678;4.900;2023-06-01T14:08:50;2.90;;;1.50;;
74196;SDS011;62555;52.678;4.900;2023-06-01T14:11:15;2.97;;;1.70;;
74196;SDS011;62555;52.678;4.900;2023-06-01T14:13:41;2.87;;;1.70;;
74196;SDS011;62555;52.678;4.900;2023-06-01T14:16:06;3.43;;;1.93;;
74196;SDS011;62555;52.678;4.900;2023-06-01T14:18:31;3.03;;;1.53;;
74196;SDS011;62555;52.678;4.900;2023-06-01T14:20:56;2.40;;;1.40;;
74196;SDS011;62555;52.678;4.900;2023-06-01T14:23:23;3.38;;;1.70;;
74196;SDS011;62555;52.678;4.900;2023-06-01T14:25:49;2.85;;;1.42;;
74196;SDS011;62555;52.678;4.900;2023-06-01T14:28:14;2.83;;;1.50;;
74196;SDS011;62555;52.678;4.900;2023-06-01T14:30:39;3.00;;;1.50;;
74196;SDS011;62555;52.678;4.900;2023-06-01T14:33:04;2.73;;;1.40;;
74196;SDS011;62555;52.678;4.900;2023-06-01T14:35:29;2.00;;;1.47;;
74196;SDS011;62555;52.678;4.900;2023-06-01T14:37:55;3.80;;;1.80;;
74196;SDS011;62555;52.678;4.900;2023-06-01T14:40:20;1.75;;;1.50;;
74196;SDS011;62555;52.678;4.900;2023-06-01T14:42:46;3.17;;;1.98;;
74196;SDS011;62555;52.678;4.900;2023-06-01T14:45:11;2.50;;;1.60;;
74196;SDS011;62555;52.678;4.900;2023-06-01T14:47:36;2.57;;;1.53;;
74196;SDS011;62555;52.678;4.900;2023-06-01T14:50:02;3.10;;;1.77;;
74196;SDS011;62555;52.678;4.900;2023-06-01T14:52:28;3.20;;;1.55;;
74196;SDS011;62555;52.678;4.900;2023-06-01T14:54:53;3.60;;;1.80;;
74196;SDS011;62555;52.678;4.900;2023-06-01T14:57:18;4.03;;;1.93;;
74196;SDS011;62555;52.678;4.900;2023-06-01T14:59:43;4.37;;;2.00;;
74196;SDS011;62555;52.678;4.900;2023-06-01T15:02:08;4.47;;;2.53;;
74196;SDS011;62555;52.678;4.900;2023-06-01T15:04:34;2.65;;;2.10;;
74196;SDS011;62555;52.678;4.900;2023-06-01T15:06:59;2.87;;;2.03;;
74196;SDS011;62555;52.678;4.900;2023-06-01T15:09:24;4.90;;;2.30;;
74196;SDS011;62555;52.678;4.900;2023-06-01T15:11:50;3.53;;;2.30;;
74196;SDS011;62555;52.678;4.900;2023-06-01T15:14:15;3.13;;;2.50;;
74196;SDS011;62555;52.678;4.900;2023-06-01T15:16:40;4.93;;;2.72;;